createdAt,value
2019-05-28T00:00:40.613Z,15.30
2019-05-28T00:01:40.644Z,16.50
2019-05-28T00:02:40.618Z,17.10
2019-05-28T00:03:40.613Z,18.60
2019-05-28T00:04:40.614Z,16.00
2019-05-28T00:05:40.610Z,18.70
2019-05-28T00:06:40.647Z,16.30
2019-05-28T00:07:40.611Z,19.50
2019-05-28T00:08:40.621Z,16.90
2019-05-28T00:09:40.621Z,17.50
2019-05-28T00:10:40.611Z,15.40
2019-05-28T00:11:40.637Z,16.20
2019-05-28T00:12:40.614Z,16.90
2019-05-28T00:13:40.614Z,15.50
2019-05-28T00:14:40.613Z,16.70
2019-05-28T00:15:40.620Z,16.40
2019-05-28T00:16:40.638Z,18.10
2019-05-28T00:17:40.618Z,17.20
2019-05-28T00:18:40.607Z,15.40
2019-05-28T00:19:40.614Z,16.60
2019-05-28T00:20:40.610Z,16.60
2019-05-28T00:21:40.645Z,16.00
2019-05-28T00:22:40.607Z,14.70
2019-05-28T00:23:40.610Z,14.70
2019-05-28T00:24:40.608Z,17.60
2019-05-28T00:25:40.606Z,16.80
2019-05-28T00:26:40.635Z,17.10
2019-05-28T00:27:40.611Z,15.50
2019-05-28T00:28:40.610Z,15.10
2019-05-28T00:29:40.601Z,14.20
2019-05-28T00:30:40.611Z,15.50
2019-05-28T00:31:40.628Z,14.10
2019-05-28T00:32:40.609Z,15.60
2019-05-28T00:33:40.668Z,15.70
2019-05-28T00:34:40.600Z,14.80
2019-05-28T00:35:40.600Z,14.00
2019-05-28T00:36:40.633Z,16.70
2019-05-28T00:37:40.601Z,15.30
2019-05-28T00:38:40.607Z,15.20
2019-05-28T00:39:40.601Z,15.20
2019-05-28T00:40:40.593Z,14.90
2019-05-28T00:41:40.625Z,14.10
2019-05-28T00:42:40.606Z,14.00
2019-05-28T00:43:40.595Z,16.30
2019-05-28T00:44:40.595Z,14.40
2019-05-28T00:45:40.600Z,16.30
2019-05-28T00:46:40.634Z,13.40
2019-05-28T00:47:40.592Z,15.80
2019-05-28T00:48:40.596Z,16.70
2019-05-28T00:49:40.596Z,14.90
2019-05-28T00:50:40.610Z,15.50
2019-05-28T00:51:40.618Z,14.30
2019-05-28T00:52:40.625Z,15.70
2019-05-28T00:53:40.590Z,15.50
2019-05-28T00:54:40.588Z,15.10
2019-05-28T00:55:40.600Z,15.90
2019-05-28T00:56:40.611Z,17.60
2019-05-28T00:57:40.621Z,19.30
2019-05-28T00:58:40.589Z,18.30
2019-05-28T00:59:40.594Z,15.80
2019-05-28T01:00:41.398Z,16.90
2019-05-28T01:01:40.590Z,18.60
2019-05-28T01:02:40.618Z,17.60
2019-05-28T01:03:40.598Z,19.30
2019-05-28T01:04:40.608Z,18.10
2019-05-28T01:05:40.586Z,17.30
2019-05-28T01:06:40.606Z,16.90
2019-05-28T01:07:40.619Z,18.50
2019-05-28T01:08:40.587Z,18.60
2019-05-28T01:09:40.590Z,18.40
2019-05-28T01:10:40.587Z,23.10
2019-05-28T01:11:40.612Z,19.20
2019-05-28T01:12:40.619Z,17.50
2019-05-28T01:13:40.581Z,15.70
2019-05-28T01:14:40.592Z,19.80
2019-05-28T01:15:40.592Z,18.90
2019-05-28T01:16:40.586Z,18.40
2019-05-28T01:17:40.613Z,22.10
2019-05-28T01:18:40.584Z,18.50
2019-05-28T01:19:40.588Z,20.90
2019-05-28T01:20:40.583Z,20.80
2019-05-28T01:21:42.513Z,23.30
2019-05-28T01:22:40.619Z,19.50
2019-05-28T01:23:40.588Z,24.70
2019-05-28T01:24:40.585Z,22.20
2019-05-28T01:25:40.582Z,23.50
2019-05-28T01:26:40.586Z,36.50
2019-05-28T01:27:40.604Z,40.30
2019-05-28T01:28:40.585Z,37.70
2019-05-28T01:29:40.582Z,42.10
2019-05-28T01:30:54.923Z,49.50
2019-05-28T01:31:40.577Z,40.30
2019-05-28T01:32:40.612Z,30.80
2019-05-28T01:33:40.575Z,45.50
2019-05-28T01:34:40.577Z,33.70
2019-05-28T01:35:40.576Z,32.50
2019-05-28T01:36:40.583Z,27.50
2019-05-28T01:37:40.600Z,23.20
2019-05-28T01:38:40.570Z,24.80
2019-05-28T01:39:40.573Z,22.60
2019-05-28T01:40:41.502Z,21.40
2019-05-28T01:41:40.573Z,24.40
2019-05-28T01:42:40.601Z,24.70
2019-05-28T01:43:40.565Z,23.20
2019-05-28T01:44:40.566Z,24.70
2019-05-28T01:45:40.568Z,22.50
2019-05-28T01:46:40.577Z,24.30
2019-05-28T01:47:40.599Z,24.60
2019-05-28T01:48:40.574Z,21.70
2019-05-28T01:49:40.574Z,25.70
2019-05-28T01:50:40.578Z,23.80
2019-05-28T01:51:40.568Z,25.60
2019-05-28T01:52:40.595Z,23.20
2019-05-28T01:53:40.567Z,22.90
2019-05-28T01:54:40.572Z,22.00
2019-05-28T01:55:40.567Z,23.10
2019-05-28T01:56:40.560Z,24.40
2019-05-28T01:57:40.591Z,24.30
2019-05-28T01:58:40.564Z,22.90
2019-05-28T01:59:40.560Z,24.10
2019-05-28T02:00:40.561Z,22.70
2019-05-28T02:01:40.565Z,26.20
2019-05-28T02:02:40.595Z,26.00
2019-05-28T02:03:40.564Z,24.20
2019-05-28T02:04:40.570Z,26.00
2019-05-28T02:05:40.566Z,23.90
2019-05-28T02:06:40.561Z,22.80
2019-05-28T02:07:40.554Z,27.60
2019-05-28T02:08:40.589Z,23.00
2019-05-28T02:09:40.565Z,25.00
2019-05-28T02:10:40.560Z,22.40
2019-05-28T02:11:40.565Z,22.30
2019-05-28T02:12:40.567Z,22.80
2019-05-28T02:13:40.587Z,21.00
2019-05-28T02:14:40.560Z,24.50
2019-05-28T02:15:40.560Z,24.70
2019-05-28T02:16:40.566Z,22.30
2019-05-28T02:17:40.554Z,22.40
2019-05-28T02:18:40.587Z,22.70
2019-05-28T02:19:40.555Z,21.10
2019-05-28T02:20:40.555Z,23.90
2019-05-28T02:21:40.548Z,22.50
2019-05-28T02:22:40.549Z,24.50
2019-05-28T02:23:40.578Z,24.20
2019-05-28T02:24:40.549Z,24.90
2019-05-28T02:25:40.546Z,26.40
2019-05-28T02:26:40.549Z,23.20
2019-05-28T02:27:40.547Z,24.80
2019-05-28T02:28:40.585Z,26.30
2019-05-28T02:29:40.546Z,28.10
2019-05-28T02:30:40.545Z,25.10
2019-05-28T02:31:40.543Z,25.60
2019-05-28T02:32:40.543Z,27.90
2019-05-28T02:33:40.569Z,26.70
2019-05-28T02:34:40.547Z,26.50
2019-05-28T02:35:40.543Z,25.10
2019-05-28T02:36:40.538Z,27.50
2019-05-28T02:37:40.544Z,28.00
2019-05-28T02:38:40.578Z,26.30
2019-05-28T02:39:40.535Z,26.70
2019-05-28T02:40:40.547Z,26.30
2019-05-28T02:41:40.547Z,25.50
2019-05-28T02:42:40.540Z,24.40
2019-05-28T02:43:40.568Z,26.30
2019-05-28T02:44:40.541Z,28.30
2019-05-28T02:45:40.545Z,25.10
2019-05-28T02:46:40.536Z,26.50
2019-05-28T02:47:40.539Z,26.60
2019-05-28T02:48:40.570Z,29.20
2019-05-28T02:49:40.533Z,26.60
2019-05-28T02:50:40.529Z,30.20
2019-05-28T02:51:40.535Z,28.50
2019-05-28T02:52:40.541Z,29.90
2019-05-28T02:53:40.559Z,27.40
2019-05-28T02:54:40.531Z,26.10
2019-05-28T02:55:40.531Z,31.60
2019-05-28T02:56:40.527Z,29.30
2019-05-28T02:57:40.535Z,27.90
2019-05-28T02:58:40.563Z,30.80
2019-05-28T02:59:40.523Z,31.60
2019-05-28T03:00:40.532Z,30.90
2019-05-28T03:01:44.407Z,33.10
2019-05-28T03:02:40.536Z,31.60
2019-05-28T03:03:40.562Z,31.70
2019-05-28T03:04:40.529Z,34.70
2019-05-28T03:05:40.525Z,30.00
2019-05-28T03:06:40.557Z,30.80
2019-05-28T03:07:40.524Z,30.20
2019-05-28T03:08:40.525Z,32.90
2019-05-28T03:09:40.525Z,32.90
2019-05-28T03:11:05.484Z,33.20
2019-05-28T03:11:40.550Z,31.70
2019-05-28T03:12:40.548Z,33.00
2019-05-28T03:13:40.527Z,34.20
2019-05-28T03:14:40.518Z,33.30
2019-05-28T03:15:40.517Z,32.10
2019-05-28T03:16:40.545Z,35.40
2019-05-28T03:17:40.519Z,34.30
2019-05-28T03:18:40.524Z,35.50
2019-05-28T03:19:40.516Z,35.80
2019-05-28T03:20:40.515Z,35.40
2019-05-28T03:21:40.559Z,32.30
2019-05-28T03:22:40.514Z,33.90
2019-05-28T03:23:40.515Z,32.30
2019-05-28T03:24:40.511Z,35.30
2019-05-28T03:25:40.513Z,37.60
2019-05-28T03:26:40.546Z,35.40
2019-05-28T03:27:40.519Z,36.60
2019-05-28T03:28:40.513Z,36.80
2019-05-28T03:29:40.536Z,32.60
2019-05-28T03:30:40.515Z,36.00
2019-05-28T03:31:40.517Z,34.60
2019-05-28T03:32:40.558Z,34.50
2019-05-28T03:33:40.530Z,37.50
2019-05-28T03:34:42.224Z,38.90
2019-05-28T03:35:40.529Z,40.20
2019-05-28T03:36:40.534Z,41.40
2019-05-28T03:37:40.566Z,39.60
2019-05-28T03:38:40.530Z,36.90
2019-05-28T03:39:40.536Z,36.60
2019-05-28T03:40:40.634Z,39.20
2019-05-28T03:41:40.530Z,37.30
2019-05-28T03:42:40.559Z,40.80
2019-05-28T03:43:40.532Z,43.10
2019-05-28T03:44:40.533Z,39.60
2019-05-28T03:45:40.534Z,39.00
2019-05-28T03:46:40.553Z,41.50
2019-05-28T03:47:40.555Z,38.30
2019-05-28T03:48:40.534Z,41.40
2019-05-28T03:49:40.553Z,38.90
2019-05-28T03:50:40.524Z,42.10
2019-05-28T03:51:40.526Z,47.80
2019-05-28T03:52:40.550Z,44.30
2019-05-28T03:53:40.523Z,40.70
2019-05-28T03:54:40.525Z,45.40
2019-05-28T03:55:40.523Z,44.60
2019-05-28T03:56:40.524Z,43.70
2019-05-28T03:57:40.545Z,49.50
2019-05-28T03:58:40.522Z,49.90
2019-05-28T03:59:40.514Z,46.60
2019-05-28T04:00:40.526Z,47.80
2019-05-28T04:01:40.488Z,49.40
2019-05-28T04:02:40.507Z,44.80
2019-05-28T04:03:40.488Z,46.40
2019-05-28T04:04:40.489Z,44.10
2019-05-28T04:05:40.487Z,43.20
2019-05-28T04:06:40.489Z,44.30
2019-05-28T04:07:40.528Z,44.20
2019-05-28T04:08:40.479Z,46.60
2019-05-28T04:09:40.480Z,43.10
2019-05-28T04:10:40.480Z,40.30
2019-05-28T04:11:44.869Z,38.40
2019-05-28T04:12:40.507Z,43.60
2019-05-28T04:13:40.476Z,43.20
2019-05-28T04:14:40.473Z,41.80
2019-05-28T04:15:40.473Z,46.70
2019-05-28T04:16:40.470Z,48.50
2019-05-28T04:17:40.501Z,43.90
2019-05-28T04:18:40.478Z,38.50
2019-05-28T04:19:40.474Z,38.10
2019-05-28T04:20:40.585Z,40.20
2019-05-28T04:21:40.465Z,34.60
2019-05-28T04:22:40.494Z,32.80
2019-05-28T04:23:41.755Z,27.80
2019-05-28T04:24:40.471Z,30.80
2019-05-28T04:25:40.468Z,29.50
2019-05-28T04:26:40.471Z,31.10
2019-05-28T04:27:40.496Z,31.20
2019-05-28T04:28:40.463Z,30.00
2019-05-28T04:29:40.466Z,31.20
2019-05-28T04:30:40.473Z,29.00
2019-05-28T04:31:40.512Z,29.30
2019-05-28T04:32:41.547Z,30.00
2019-05-28T04:33:40.463Z,26.90
2019-05-28T04:34:40.469Z,31.40
2019-05-28T04:35:40.460Z,32.00
2019-05-28T04:36:40.461Z,28.40
2019-05-28T04:37:40.491Z,32.20
2019-05-28T04:38:40.458Z,32.90
2019-05-28T04:39:40.462Z,31.30
2019-05-28T04:40:40.487Z,29.90
2019-05-28T04:41:40.468Z,33.40
2019-05-28T04:42:40.470Z,32.40
2019-05-28T04:43:40.483Z,31.40
2019-05-28T04:44:40.459Z,32.80
2019-05-28T04:45:40.458Z,34.60
2019-05-28T04:46:40.459Z,31.60
2019-05-28T04:47:40.458Z,30.60
2019-05-28T04:48:40.479Z,33.20
2019-05-28T04:49:40.456Z,32.70
2019-05-28T04:50:40.452Z,32.00
2019-05-28T04:51:40.453Z,33.20
2019-05-28T04:52:40.451Z,34.40
2019-05-28T04:53:40.484Z,35.60
2019-05-28T04:54:40.453Z,36.00
2019-05-28T04:55:40.456Z,34.30
2019-05-28T04:56:40.455Z,35.00
2019-05-28T04:57:40.449Z,34.30
2019-05-28T04:58:40.480Z,36.40
2019-05-28T04:59:40.452Z,34.50
2019-05-28T05:00:40.560Z,38.50
2019-05-28T05:01:40.445Z,32.20
2019-05-28T05:02:55.530Z,34.70
2019-05-28T05:03:40.474Z,34.80
2019-05-28T05:04:40.449Z,31.80
2019-05-28T05:05:40.446Z,33.70
2019-05-28T05:06:40.449Z,34.80
2019-05-28T05:07:40.445Z,37.20
2019-05-28T05:08:40.478Z,35.10
2019-05-28T05:09:40.446Z,35.10
2019-05-28T05:10:40.451Z,37.30
2019-05-28T05:11:40.442Z,37.90
2019-05-28T05:12:40.445Z,39.00
2019-05-28T05:13:40.471Z,37.60
2019-05-28T05:14:40.440Z,33.50
2019-05-28T05:15:40.470Z,35.90
2019-05-28T05:16:40.438Z,33.90
2019-05-28T05:17:40.436Z,35.20
2019-05-28T05:18:40.440Z,35.20
2019-05-28T05:19:40.465Z,35.80
2019-05-28T05:20:40.440Z,36.20
2019-05-28T05:21:40.446Z,36.60
2019-05-28T05:22:40.441Z,37.40
2019-05-28T05:23:40.462Z,39.50
2019-05-28T05:24:40.440Z,34.80
2019-05-28T05:25:40.438Z,35.00
2019-05-28T05:26:40.443Z,38.50
2019-05-28T05:27:40.450Z,34.80
2019-05-28T05:28:40.461Z,34.30
2019-05-28T05:29:40.433Z,33.10
2019-05-28T05:30:40.439Z,31.90
2019-05-28T05:31:40.464Z,32.20
2019-05-28T05:32:40.442Z,32.40
2019-05-28T05:33:40.434Z,30.50
2019-05-28T05:34:40.464Z,31.20
2019-05-28T05:35:40.438Z,32.60
2019-05-28T05:36:40.436Z,25.70
2019-05-28T05:37:40.440Z,31.80
2019-05-28T05:38:40.432Z,29.40
2019-05-28T05:39:40.530Z,27.50
2019-05-28T05:40:40.536Z,25.40
2019-05-28T05:41:40.469Z,25.50
2019-05-28T05:42:40.440Z,24.50
2019-05-28T05:43:40.453Z,24.80
2019-05-28T05:44:40.429Z,22.90
2019-05-28T05:45:40.468Z,25.10
2019-05-28T05:46:40.436Z,23.90
2019-05-28T05:47:40.434Z,20.60
2019-05-28T05:48:40.441Z,24.10
2019-05-28T05:49:40.465Z,24.40
2019-05-28T05:50:40.436Z,23.70
2019-05-28T05:51:40.445Z,22.50
2019-05-28T05:52:40.463Z,22.60
2019-05-28T05:53:40.457Z,22.10
2019-05-28T05:54:40.463Z,20.50
2019-05-28T05:55:40.443Z,22.00
2019-05-28T05:56:40.448Z,21.50
2019-05-28T05:57:40.438Z,19.20
2019-05-28T05:58:40.450Z,16.50
2019-05-28T05:59:40.476Z,16.50
2019-05-28T06:00:40.444Z,16.30
2019-05-28T06:01:40.445Z,16.10
2019-05-28T06:02:40.447Z,18.70
2019-05-28T06:03:41.891Z,18.10
2019-05-28T06:04:40.477Z,16.90
2019-05-28T06:05:40.457Z,15.80
2019-05-28T06:06:40.447Z,16.10
2019-05-28T06:07:40.456Z,16.70
2019-05-28T06:08:40.454Z,16.10
2019-05-28T06:09:40.485Z,14.40
2019-05-28T06:10:40.454Z,15.30
2019-05-28T06:11:40.453Z,17.70
2019-05-28T06:12:40.457Z,14.10
2019-05-28T06:13:40.462Z,15.00
2019-05-28T06:14:40.494Z,13.80
2019-05-28T06:15:40.461Z,14.00
2019-05-28T06:16:40.454Z,11.80
2019-05-28T06:17:40.462Z,13.70
2019-05-28T06:18:40.463Z,12.20
2019-05-28T06:19:40.498Z,14.60
2019-05-28T06:20:40.553Z,11.90
2019-05-28T06:21:40.471Z,13.60
2019-05-28T06:22:40.465Z,11.70
2019-05-28T06:23:40.753Z,11.60
2019-05-28T06:24:40.498Z,11.50
2019-05-28T06:25:40.473Z,12.50
2019-05-28T06:26:40.468Z,12.10
2019-05-28T06:27:40.472Z,11.10
2019-05-28T06:28:40.478Z,12.00
2019-05-28T06:29:40.502Z,11.10
2019-05-28T06:30:40.480Z,9.90
2019-05-28T06:31:40.479Z,10.20
2019-05-28T06:32:40.478Z,10.90
2019-05-28T06:33:55.767Z,11.00
2019-05-28T06:34:40.518Z,9.70
2019-05-28T06:35:40.489Z,12.10
2019-05-28T06:36:40.489Z,11.00
2019-05-28T06:37:40.489Z,10.80
2019-05-28T06:38:40.494Z,12.50
2019-05-28T06:39:40.527Z,12.70
2019-05-28T06:40:40.493Z,11.50
2019-05-28T06:41:40.527Z,12.80
2019-05-28T06:42:40.515Z,9.90
2019-05-28T06:43:40.506Z,10.80
2019-05-28T06:44:40.512Z,10.60
2019-05-28T06:45:40.538Z,10.80
2019-05-28T06:46:40.512Z,12.40
2019-05-28T06:47:45.205Z,9.30
2019-05-28T06:48:40.512Z,10.40
2019-05-28T06:49:40.513Z,10.40
2019-05-28T06:50:40.552Z,10.60
2019-05-28T06:51:40.516Z,10.00
2019-05-28T06:52:40.519Z,9.00
2019-05-28T06:53:40.520Z,9.10
2019-05-28T06:54:40.521Z,8.50
2019-05-28T06:55:40.552Z,9.70
2019-05-28T06:56:40.530Z,9.00
2019-05-28T06:57:40.526Z,8.20
2019-05-28T06:58:40.654Z,10.10
2019-05-28T06:59:40.538Z,7.70
2019-05-28T07:00:40.563Z,9.20
2019-05-28T07:01:40.558Z,9.00
2019-05-28T07:02:40.539Z,9.10
2019-05-28T07:03:40.552Z,8.90
2019-05-28T07:04:40.546Z,7.70
2019-05-28T07:05:40.575Z,7.80
2019-05-28T07:06:40.555Z,8.10
2019-05-28T07:07:40.552Z,8.30
2019-05-28T07:08:40.593Z,7.90
2019-05-28T07:09:40.560Z,9.30
2019-05-28T07:10:56.568Z,8.10
2019-05-28T07:11:40.563Z,9.20
2019-05-28T07:12:40.563Z,8.30
2019-05-28T07:13:40.571Z,9.00
2019-05-28T07:14:40.578Z,9.70
2019-05-28T07:15:40.609Z,7.40
2019-05-28T07:16:52.788Z,8.50
2019-05-28T07:17:40.582Z,7.10
2019-05-28T07:18:40.581Z,9.00
2019-05-28T07:19:40.587Z,7.50
2019-05-28T07:20:40.616Z,6.60
2019-05-28T07:21:40.600Z,8.30
2019-05-28T07:22:40.593Z,6.20
2019-05-28T07:23:40.593Z,8.10
2019-05-28T07:24:40.595Z,6.90
2019-05-28T07:25:40.634Z,7.30
2019-05-28T07:26:40.606Z,7.70
2019-05-28T07:27:40.638Z,8.50
2019-05-28T07:28:40.615Z,8.60
2019-05-28T07:29:40.670Z,9.10
2019-05-28T07:30:40.614Z,9.00
2019-05-28T07:31:40.651Z,9.10
2019-05-28T07:32:40.651Z,8.60
2019-05-28T07:33:40.624Z,7.50
2019-05-28T07:34:40.641Z,11.30
2019-05-28T07:35:45.622Z,7.60
2019-05-28T07:36:40.643Z,8.60
2019-05-28T07:37:40.663Z,9.20
2019-05-28T07:38:40.650Z,8.60
2019-05-28T07:39:40.642Z,7.40
2019-05-28T07:40:40.644Z,7.40
2019-05-28T07:41:40.658Z,5.80
2019-05-28T07:42:40.678Z,8.00
2019-05-28T07:43:40.656Z,7.70
2019-05-28T07:44:40.784Z,6.30
2019-05-28T07:45:40.660Z,7.80
2019-05-28T07:46:40.687Z,6.50
2019-05-28T07:47:40.697Z,6.20
2019-05-28T07:48:40.684Z,6.40
2019-05-28T07:49:40.680Z,7.10
2019-05-28T07:50:40.700Z,7.80
2019-05-28T07:51:40.690Z,5.60
2019-05-28T07:52:40.741Z,5.90
2019-05-28T07:53:40.888Z,8.30
2019-05-28T07:54:40.695Z,7.90
2019-05-28T07:55:40.699Z,5.40
2019-05-28T07:56:40.719Z,7.90
2019-05-28T07:57:40.743Z,6.30
2019-05-28T07:58:40.713Z,7.80
2019-05-28T07:59:40.718Z,6.20
2019-05-28T08:00:40.727Z,5.20
2019-05-28T08:01:40.731Z,6.60
2019-05-28T08:02:40.767Z,7.40
2019-05-28T08:03:40.729Z,8.90
2019-05-28T08:04:47.309Z,5.20
2019-05-28T08:05:40.751Z,5.30
2019-05-28T08:06:54.169Z,8.00
2019-05-28T08:07:40.783Z,5.40
2019-05-28T08:08:40.745Z,6.70
2019-05-28T08:09:40.759Z,8.20
2019-05-28T08:10:40.787Z,5.40
2019-05-28T08:11:40.771Z,6.90
2019-05-28T08:12:40.796Z,6.70
2019-05-28T08:13:41.544Z,7.00
2019-05-28T08:14:40.782Z,5.30
2019-05-28T08:15:40.782Z,5.60
2019-05-28T08:16:52.342Z,4.90
2019-05-28T08:17:40.816Z,6.60
2019-05-28T08:18:40.797Z,6.50
2019-05-28T08:19:40.797Z,8.10
2019-05-28T08:20:40.959Z,7.20
2019-05-28T08:21:40.811Z,5.40
2019-05-28T08:22:42.638Z,5.50
2019-05-28T08:23:40.815Z,5.80
2019-05-28T08:24:40.822Z,7.40
2019-05-28T08:25:47.433Z,5.90
2019-05-28T08:26:40.829Z,7.00
2019-05-28T08:27:40.865Z,5.30
2019-05-28T08:28:40.856Z,6.10
2019-05-28T08:29:40.844Z,5.80
2019-05-28T08:30:40.850Z,7.30
2019-05-28T08:31:40.857Z,7.10
2019-05-28T08:32:40.909Z,5.90
2019-05-28T08:33:40.864Z,7.50
2019-05-28T08:34:40.871Z,6.00
2019-05-28T08:35:40.880Z,5.80
2019-05-28T08:36:40.889Z,6.20
2019-05-28T08:37:40.906Z,7.80
2019-05-28T08:38:40.882Z,6.00
2019-05-28T08:39:40.890Z,5.60
2019-05-28T08:40:40.893Z,4.80
2019-05-28T08:41:40.899Z,5.70
2019-05-28T08:42:40.950Z,5.40
2019-05-28T08:43:40.934Z,7.40
2019-05-28T08:44:40.929Z,4.70
2019-05-28T08:45:42.797Z,5.40
2019-05-28T08:46:40.919Z,5.60
2019-05-28T08:47:40.920Z,5.30
2019-05-28T08:48:40.958Z,7.00
2019-05-28T08:49:40.932Z,8.20
2019-05-28T08:50:40.936Z,4.90
2019-05-28T08:51:40.944Z,6.50
2019-05-28T08:52:40.944Z,8.30
2019-05-28T08:53:41.343Z,7.50
2019-05-28T08:54:40.954Z,4.40
2019-05-28T08:55:40.960Z,8.40
2019-05-28T08:56:40.969Z,4.80
2019-05-28T08:57:40.978Z,6.40
2019-05-28T08:58:41.016Z,4.70
2019-05-28T08:59:40.975Z,6.80
2019-05-28T09:00:41.153Z,7.30
2019-05-28T09:01:40.992Z,5.70
2019-05-28T09:02:40.994Z,6.00
2019-05-28T09:03:41.026Z,4.70
2019-05-28T09:04:41.004Z,5.60
2019-05-28T09:05:41.004Z,6.10
2019-05-28T09:06:41.015Z,6.90
2019-05-28T09:07:41.032Z,5.40
2019-05-28T09:08:41.068Z,6.00
2019-05-28T09:09:41.026Z,5.20
2019-05-28T09:10:41.039Z,7.40
2019-05-28T09:11:41.031Z,5.80
2019-05-28T09:12:41.047Z,6.90
2019-05-28T09:13:41.089Z,4.80
2019-05-28T09:14:55.693Z,5.50
2019-05-28T09:15:41.049Z,6.70
2019-05-28T09:16:41.061Z,5.30
2019-05-28T09:17:41.076Z,5.90
2019-05-28T09:18:41.091Z,7.50
2019-05-28T09:19:41.097Z,6.70
2019-05-28T09:20:41.163Z,6.60
2019-05-28T09:21:41.087Z,6.10
2019-05-28T09:22:41.085Z,7.90
2019-05-28T09:23:41.090Z,5.90
2019-05-28T09:24:41.110Z,7.90
2019-05-28T09:25:41.089Z,5.50
2019-05-28T09:26:41.098Z,6.30
2019-05-28T09:27:41.091Z,5.40
2019-05-28T09:28:41.145Z,6.20
2019-05-28T09:29:41.130Z,6.30
2019-05-28T09:30:41.108Z,5.60
2019-05-28T09:31:41.108Z,6.60
2019-05-28T09:32:41.183Z,8.10
2019-05-28T09:33:41.141Z,6.20
2019-05-28T09:34:41.113Z,6.20
2019-05-28T09:35:44.469Z,7.00
2019-05-28T09:36:41.128Z,7.20
2019-05-28T09:37:41.130Z,5.20
2019-05-28T09:38:41.157Z,6.50
2019-05-28T09:39:41.130Z,6.50
2019-05-28T09:40:50.194Z,6.10
2019-05-28T09:41:41.140Z,7.30
2019-05-28T09:42:41.141Z,4.60
2019-05-28T09:43:41.179Z,6.40
2019-05-28T09:44:41.195Z,8.40
2019-05-28T09:45:41.157Z,6.10
2019-05-28T09:46:41.164Z,4.80
2019-05-28T09:47:41.162Z,6.50
2019-05-28T09:48:41.170Z,5.60
2019-05-28T09:49:41.195Z,6.60
2019-05-28T09:50:41.178Z,6.00
2019-05-28T09:51:41.195Z,5.00
2019-05-28T09:52:53.525Z,6.40
2019-05-28T09:53:41.188Z,8.60
2019-05-28T09:54:41.218Z,7.90
2019-05-28T09:55:41.245Z,6.50
2019-05-28T09:56:41.381Z,4.30
2019-05-28T09:57:47.314Z,5.90
2019-05-28T09:58:41.206Z,7.30
2019-05-28T09:59:42.148Z,8.50
2019-05-28T10:00:56.774Z,8.40
2019-05-28T10:01:41.248Z,7.00
2019-05-28T10:02:41.229Z,5.80
2019-05-28T10:03:41.225Z,6.70
2019-05-28T10:04:49.264Z,7.60
2019-05-28T10:05:54.914Z,6.80
2019-05-28T10:06:41.841Z,7.10
2019-05-28T10:07:41.260Z,8.00
2019-05-28T10:08:41.268Z,7.50
2019-05-28T10:09:41.297Z,8.00
2019-05-28T10:10:41.287Z,6.50
2019-05-28T10:11:41.281Z,7.70
2019-05-28T10:12:41.266Z,6.70
2019-05-28T10:13:41.909Z,4.70
2019-05-28T10:14:44.202Z,5.80
2019-05-28T10:15:41.321Z,5.50
2019-05-28T10:16:41.286Z,5.90
2019-05-28T10:17:41.318Z,6.80
2019-05-28T10:18:41.298Z,7.70
2019-05-28T10:19:41.297Z,7.00
2019-05-28T10:20:41.345Z,8.60
2019-05-28T10:21:41.310Z,8.00
2019-05-28T10:22:41.322Z,7.90
2019-05-28T10:23:41.343Z,6.20
2019-05-28T10:24:41.335Z,6.70
2019-05-28T10:25:41.398Z,6.90
2019-05-28T10:26:41.346Z,7.50
2019-05-28T10:27:59.419Z,6.90
2019-05-28T10:28:41.341Z,6.40
2019-05-28T10:29:41.343Z,7.50
2019-05-28T10:30:41.382Z,9.20
2019-05-28T10:31:41.358Z,7.90
2019-05-28T10:32:41.370Z,6.60
2019-05-28T10:33:41.372Z,7.60
2019-05-28T10:34:41.377Z,8.00
2019-05-28T10:35:41.408Z,6.00
2019-05-28T10:36:41.381Z,7.10
2019-05-28T10:37:41.392Z,8.30
2019-05-28T10:38:41.395Z,6.30
2019-05-28T10:39:41.402Z,6.60
2019-05-28T10:40:41.585Z,6.70
2019-05-28T10:41:41.412Z,6.40
2019-05-28T10:42:41.416Z,6.10
2019-05-28T10:43:41.425Z,7.10
2019-05-28T10:44:45.021Z,7.00
2019-05-28T10:45:41.593Z,6.60
2019-05-28T10:46:41.444Z,6.50
2019-05-28T10:47:41.452Z,7.20
2019-05-28T10:48:41.457Z,6.60
2019-05-28T10:49:41.477Z,8.40
2019-05-28T10:50:41.497Z,8.80
2019-05-28T10:51:41.483Z,6.60
2019-05-28T10:52:41.493Z,6.10
2019-05-28T10:53:41.489Z,6.40
2019-05-28T10:54:41.533Z,5.80
2019-05-28T10:55:41.540Z,5.50
2019-05-28T10:56:41.523Z,7.20
2019-05-28T10:57:41.564Z,6.20
2019-05-28T10:58:41.533Z,6.70
2019-05-28T10:59:41.563Z,8.60
2019-05-28T11:00:41.579Z,5.70
2019-05-28T11:01:41.561Z,5.30
2019-05-28T11:02:41.566Z,6.30
2019-05-28T11:03:41.566Z,5.50
2019-05-28T11:04:41.582Z,7.40
2019-05-28T11:05:41.607Z,6.00
2019-05-28T11:06:51.309Z,6.40
2019-05-28T11:07:41.596Z,7.00
2019-05-28T11:08:41.619Z,7.40
2019-05-28T11:09:41.664Z,5.30
2019-05-28T11:10:41.621Z,6.30
2019-05-28T11:11:41.627Z,5.00
2019-05-28T11:12:41.639Z,5.30
2019-05-28T11:13:52.634Z,6.00
2019-05-28T11:14:41.680Z,5.30
2019-05-28T11:15:41.690Z,7.70
2019-05-28T11:16:41.670Z,5.60
2019-05-28T11:17:41.695Z,5.90
2019-05-28T11:18:41.694Z,5.60
2019-05-28T11:19:41.690Z,5.80
2019-05-28T11:20:42.176Z,5.70
2019-05-28T11:21:41.710Z,5.40
2019-05-28T11:22:41.716Z,9.10
2019-05-28T11:23:41.727Z,6.80
2019-05-28T11:24:41.729Z,8.10
2019-05-28T11:25:41.764Z,5.70
2019-05-28T11:26:41.746Z,6.60
2019-05-28T11:27:41.750Z,7.50
2019-05-28T11:28:41.757Z,4.80
2019-05-28T11:29:41.781Z,5.50
2019-05-28T11:30:42.052Z,6.70
2019-05-28T11:31:41.776Z,6.60
2019-05-28T11:32:41.784Z,7.40
2019-05-28T11:33:41.797Z,6.00
2019-05-28T11:34:41.798Z,7.10
2019-05-28T11:35:41.836Z,6.10
2019-05-28T11:36:41.810Z,5.40
2019-05-28T11:37:41.816Z,6.90
2019-05-28T11:38:41.823Z,6.00
2019-05-28T11:39:41.830Z,7.30
2019-05-28T11:40:41.862Z,5.80
2019-05-28T11:41:43.182Z,6.00
2019-05-28T11:42:41.857Z,6.90
2019-05-28T11:43:41.858Z,5.40
2019-05-28T11:44:41.859Z,5.90
2019-05-28T11:45:41.890Z,5.00
2019-05-28T11:46:41.879Z,7.80
2019-05-28T11:47:41.881Z,6.20
2019-05-28T11:48:41.904Z,6.30
2019-05-28T11:49:41.891Z,4.90
2019-05-28T11:50:41.924Z,5.80
2019-05-28T11:51:41.903Z,5.30
2019-05-28T11:52:41.938Z,5.90
2019-05-28T11:53:41.912Z,6.90
2019-05-28T11:54:41.925Z,6.40
2019-05-28T11:55:42.130Z,6.70
2019-05-28T11:56:41.929Z,6.10
2019-05-28T11:57:41.949Z,6.00
2019-05-28T11:58:41.952Z,4.90
2019-05-28T11:59:41.959Z,6.30
2019-05-28T12:00:41.983Z,7.00
2019-05-28T12:01:41.963Z,6.60
2019-05-28T12:02:42.005Z,5.60
2019-05-28T12:03:41.979Z,4.10
2019-05-28T12:04:41.987Z,5.40
2019-05-28T12:05:42.018Z,5.40
2019-05-28T12:06:41.999Z,4.50
2019-05-28T12:07:42.014Z,6.10
2019-05-28T12:08:42.012Z,5.70
2019-05-28T12:09:42.015Z,4.00
2019-05-28T12:10:42.051Z,6.00
2019-05-28T12:11:42.032Z,5.20
2019-05-28T12:12:42.049Z,5.80
2019-05-28T12:13:42.047Z,5.30
2019-05-28T12:14:42.052Z,4.40
2019-05-28T12:15:42.094Z,4.80
2019-05-28T12:16:42.063Z,3.30
2019-05-28T12:17:45.138Z,5.60
2019-05-28T12:18:42.081Z,6.20
2019-05-28T12:19:42.091Z,4.20
2019-05-28T12:20:42.118Z,4.60
2019-05-28T12:21:42.133Z,5.60
2019-05-28T12:22:42.909Z,7.00
2019-05-28T12:23:42.127Z,3.80
2019-05-28T12:24:42.119Z,5.30
2019-05-28T12:25:42.133Z,5.90
2019-05-28T12:26:42.290Z,5.60
2019-05-28T12:27:42.135Z,5.90
2019-05-28T12:28:42.140Z,5.20
2019-05-28T12:29:51.511Z,5.50
2019-05-28T12:30:43.039Z,4.80
2019-05-28T12:31:42.197Z,5.10
2019-05-28T12:32:42.198Z,5.60
2019-05-28T12:33:42.187Z,3.40
2019-05-28T12:34:42.196Z,5.60
2019-05-28T12:35:43.044Z,5.30
2019-05-28T12:36:42.208Z,4.20
2019-05-28T12:37:48.552Z,6.20
2019-05-28T12:38:42.364Z,6.10
2019-05-28T12:39:42.218Z,6.20
2019-05-28T12:40:47.725Z,5.00
2019-05-28T12:41:42.264Z,5.10
2019-05-28T12:42:42.244Z,4.40
2019-05-28T12:43:42.247Z,5.40
2019-05-28T12:44:42.868Z,4.10
2019-05-28T12:45:42.263Z,6.60
2019-05-28T12:46:42.294Z,4.70
2019-05-28T12:47:42.283Z,4.40
2019-05-28T12:48:42.278Z,4.30
2019-05-28T12:49:42.295Z,5.60
2019-05-28T12:50:42.460Z,5.00
2019-05-28T12:51:42.331Z,4.00
2019-05-28T12:52:46.524Z,4.70
2019-05-28T12:53:50.337Z,5.20
2019-05-28T12:54:42.314Z,6.00
2019-05-28T12:55:42.330Z,6.50
2019-05-28T12:56:42.374Z,4.60
2019-05-28T12:57:42.341Z,5.50
2019-05-28T12:58:43.609Z,5.20
2019-05-28T12:59:42.356Z,3.90
2019-05-28T13:00:42.371Z,5.10
2019-05-28T13:01:42.415Z,4.80
2019-05-28T13:02:42.429Z,5.50
2019-05-28T13:03:42.609Z,6.10
2019-05-28T13:04:42.394Z,6.20